createdAt,value
2023-01-29T00:01:17.792Z,102821.66
2023-01-29T00:04:21.582Z,102815.66
2023-01-29T00:07:25.205Z,102819.19
2023-01-29T00:10:28.887Z,102820.81
2023-01-29T00:13:34.551Z,102806.34
2023-01-29T00:16:39.641Z,102802.75
2023-01-29T00:19:43.410Z,102799.41
2023-01-29T00:22:47.150Z,102795.84
2023-01-29T00:25:50.904Z,102784.50
2023-01-29T00:28:54.822Z,102784.56
2023-01-29T00:31:59.939Z,102789.78
2023-01-29T00:35:03.867Z,102766.56
2023-01-29T00:38:07.515Z,102763.91
2023-01-29T00:41:31.445Z,102752.69
2023-01-29T00:44:52.591Z,102749.06
2023-01-29T00:47:57.557Z,102740.50
2023-01-29T00:51:01.432Z,102748.31
2023-01-29T00:54:06.783Z,102756.16
2023-01-29T00:57:10.439Z,102755.34
2023-01-29T01:00:18.404Z,102765.69
2023-01-29T01:03:23.600Z,102770.94
2023-01-29T01:06:27.225Z,102773.53
2023-01-29T01:09:48.137Z,102766.59
2023-01-29T01:12:59.179Z,102770.03
2023-01-29T01:16:02.899Z,102783.84
2023-01-29T01:19:07.984Z,102789.34
2023-01-29T01:22:12.139Z,102779.47
2023-01-29T01:25:15.861Z,102781.97
2023-01-29T01:28:19.428Z,102787.25
2023-01-29T01:31:23.160Z,102779.63
2023-01-29T01:34:28.596Z,102785.56
2023-01-29T01:37:32.253Z,102767.34
2023-01-29T01:40:35.983Z,102767.34
2023-01-29T01:43:54.643Z,102763.00
2023-01-29T01:46:58.371Z,102761.22
2023-01-29T01:50:10.708Z,102758.75
2023-01-29T01:53:19.930Z,102761.31
2023-01-29T01:56:38.611Z,102768.22
2023-01-29T01:59:44.337Z,102770.00
2023-01-29T02:03:07.217Z,102761.38
2023-01-29T02:06:30.364Z,102767.59
2023-01-29T02:09:41.299Z,102762.38
2023-01-29T02:12:46.862Z,102764.16
2023-01-29T02:15:50.532Z,102752.84
2023-01-29T02:18:55.204Z,102757.19
2023-01-29T02:22:55.253Z,102764.16
2023-01-29T02:26:41.912Z,102765.00
2023-01-29T02:30:00.911Z,102763.16
2023-01-29T02:33:22.557Z,102762.41
2023-01-29T02:36:39.287Z,102759.06
2023-01-29T02:39:58.658Z,102753.88
2023-01-29T02:43:17.244Z,102752.13
2023-01-29T02:46:32.042Z,102755.53
2023-01-29T02:49:47.072Z,102747.84
2023-01-29T02:53:03.384Z,102736.59
2023-01-29T02:56:16.652Z,102734.91
2023-01-29T02:59:26.721Z,102719.31
2023-01-29T03:02:40.160Z,102711.63
2023-01-29T03:05:58.826Z,102707.31
2023-01-29T03:09:08.244Z,102699.34
2023-01-29T03:12:29.287Z,102693.25
2023-01-29T03:15:42.474Z,102687.94
2023-01-29T03:18:56.247Z,102689.53
2023-01-29T03:22:05.682Z,102679.88
2023-01-29T03:25:29.604Z,102680.59
2023-01-29T03:28:52.803Z,102668.56
2023-01-29T03:32:05.595Z,102658.94
2023-01-29T03:35:21.036Z,102648.38
2023-01-29T03:38:29.736Z,102649.22
2023-01-29T03:41:39.672Z,102645.59
2023-01-29T03:44:58.627Z,102635.16
2023-01-29T03:48:12.286Z,102645.34
2023-01-29T03:51:29.667Z,102645.28
2023-01-29T03:54:50.294Z,102648.81
2023-01-29T03:58:02.129Z,102644.41
2023-01-29T04:01:16.154Z,102646.94
2023-01-29T04:04:27.837Z,102645.34
2023-01-29T04:07:36.658Z,102641.69
2023-01-29T04:10:44.402Z,102641.69
2023-01-29T04:13:49.592Z,102641.69
2023-01-29T04:16:59.052Z,102638.25
2023-01-29T04:20:03.809Z,102638.97
2023-01-29T04:23:21.910Z,102634.66
2023-01-29T04:26:48.288Z,102634.66
2023-01-29T04:30:15.173Z,102634.53
2023-01-29T04:33:35.508Z,102643.13
2023-01-29T04:36:55.700Z,102637.06
2023-01-29T04:40:15.229Z,102637.72
2023-01-29T04:43:29.739Z,102629.16
2023-01-29T04:46:48.769Z,102632.47
2023-01-29T04:50:05.465Z,102644.47
2023-01-29T04:53:19.790Z,102634.00
2023-01-29T04:56:35.110Z,102637.56
2023-01-29T04:59:49.494Z,102646.31
2023-01-29T05:02:54.562Z,102642.06
2023-01-29T05:06:03.271Z,102654.19
2023-01-29T05:09:07.687Z,102653.28
2023-01-29T05:12:15.632Z,102650.03
2023-01-29T05:15:25.836Z,102640.63
2023-01-29T05:18:30.927Z,102636.28
2023-01-29T05:21:34.500Z,102619.09
2023-01-29T05:24:38.684Z,102616.59
2023-01-29T05:28:01.418Z,102626.19
2023-01-29T05:31:05.171Z,102628.97
2023-01-29T05:34:08.982Z,102634.28
2023-01-29T05:37:12.643Z,102634.44
2023-01-29T05:40:16.962Z,102633.72
2023-01-29T05:43:24.635Z,102624.44
2023-01-29T05:46:28.256Z,102611.78
2023-01-29T05:49:32.104Z,102605.66
2023-01-29T05:52:35.843Z,102606.78
2023-01-29T05:55:39.637Z,102608.50
2023-01-29T05:58:44.794Z,102607.59
2023-01-29T06:01:48.397Z,102623.19
2023-01-29T06:04:53.121Z,102617.13
2023-01-29T06:07:56.944Z,102615.25
2023-01-29T06:11:00.696Z,102610.09
2023-01-29T06:14:06.045Z,102621.22
2023-01-29T06:17:09.778Z,102610.91
2023-01-29T06:20:15.273Z,102603.22
2023-01-29T06:23:19.115Z,102609.28
2023-01-29T06:26:22.866Z,102603.16
2023-01-29T06:29:27.972Z,102623.06
2023-01-29T06:32:31.900Z,102616.25
2023-01-29T06:35:35.645Z,102599.84
2023-01-29T06:38:39.299Z,102590.34
2023-01-29T06:41:43.065Z,102591.25
2023-01-29T06:44:48.034Z,102600.84
2023-01-29T06:47:51.635Z,102600.06
2023-01-29T06:50:55.417Z,102582.91
2023-01-29T06:53:59.100Z,102583.84
2023-01-29T06:57:02.975Z,102577.78
2023-01-29T07:00:11.262Z,102578.72
2023-01-29T07:03:15.385Z,102585.69
2023-01-29T07:06:19.333Z,102585.78
2023-01-29T07:09:22.908Z,102578.06
2023-01-29T07:12:26.552Z,102576.44
2023-01-29T07:15:31.535Z,102572.16
2023-01-29T07:18:35.248Z,102573.03
2023-01-29T07:21:39.339Z,102578.25
2023-01-29T07:24:44.692Z,102578.34
2023-01-29T07:27:48.853Z,102581.78
2023-01-29T07:30:58.408Z,102573.97
2023-01-29T07:34:02.193Z,102566.25
2023-01-29T07:37:06.355Z,102562.72
2023-01-29T07:40:11.960Z,102554.97
2023-01-29T07:43:17.205Z,102568.84
2023-01-29T07:46:22.372Z,102567.06
2023-01-29T07:49:26.208Z,102561.94
2023-01-29T07:52:32.225Z,102546.56
2023-01-29T07:55:45.425Z,102548.25
2023-01-29T07:58:49.731Z,102555.38
2023-01-29T08:01:54.856Z,102551.16
2023-01-29T08:04:58.599Z,102558.94
2023-01-29T08:08:06.942Z,102552.13
2023-01-29T08:11:11.372Z,102552.97
2023-01-29T08:14:15.028Z,102541.94
2023-01-29T08:17:20.083Z,102546.28
2023-01-29T08:20:24.576Z,102526.47
2023-01-29T08:23:28.530Z,102522.41
2023-01-29T08:26:32.140Z,102522.41
2023-01-29T08:29:36.120Z,102525.19
2023-01-29T08:32:41.431Z,102530.91
2023-01-29T08:35:45.652Z,102531.81
2023-01-29T08:38:49.231Z,102534.44
2023-01-29T08:41:52.894Z,102540.47
2023-01-29T08:44:56.530Z,102545.81
2023-01-29T08:48:01.502Z,102525.81
2023-01-29T08:51:05.757Z,102531.09
2023-01-29T08:54:09.576Z,102523.16
2023-01-29T08:57:13.140Z,102516.44
2023-01-29T09:00:18.461Z,102512.94
2023-01-29T09:03:23.663Z,102505.06
2023-01-29T09:06:27.325Z,102489.69
2023-01-29T09:09:30.965Z,102484.44
2023-01-29T09:12:34.884Z,102483.69
2023-01-29T09:15:38.580Z,102481.09
2023-01-29T09:18:43.692Z,102481.84
2023-01-29T09:21:47.497Z,102468.19
2023-01-29T09:24:51.091Z,102476.19
2023-01-29T09:27:55.994Z,102476.19
2023-01-29T09:31:03.678Z,102477.06
2023-01-29T09:34:08.932Z,102482.31
2023-01-29T09:37:12.695Z,102483.28
2023-01-29T09:40:27.153Z,102483.31
2023-01-29T09:43:47.073Z,102481.63
2023-01-29T09:46:56.195Z,102467.75
2023-01-29T09:50:06.836Z,102473.06
2023-01-29T09:53:21.303Z,102472.91
2023-01-29T09:56:29.039Z,102466.84
2023-01-29T09:59:33.901Z,102466.03
2023-01-29T10:06:34.813Z,102458.25
2023-01-29T10:10:09.577Z,102451.53
2023-01-29T10:13:25.824Z,102444.59
2023-01-29T10:16:47.300Z,102442.06
2023-01-29T10:20:28.874Z,102432.81
2023-01-29T10:23:38.620Z,102425.03
2023-01-29T10:26:42.832Z,102430.34
2023-01-29T10:29:52.180Z,102427.78
2023-01-29T10:33:00.757Z,102427.06
2023-01-29T10:36:12.549Z,102433.09
2023-01-29T10:39:21.774Z,102425.28
2023-01-29T10:42:35.833Z,102429.16
2023-01-29T10:45:49.593Z,102409.28
2023-01-29T10:49:06.534Z,102414.47
2023-01-29T10:52:26.465Z,102403.41
2023-01-29T10:55:53.416Z,102398.25
2023-01-29T10:59:05.488Z,102396.53
2023-01-29T11:02:19.871Z,102382.16
2023-01-29T11:05:37.557Z,102377.53
2023-01-29T11:08:50.523Z,102365.56
2023-01-29T11:12:01.753Z,102366.41
2023-01-29T11:15:17.359Z,102361.44
2023-01-29T11:18:20.954Z,102365.91
2023-01-29T11:21:27.100Z,102359.00
2023-01-29T11:24:30.921Z,102355.66
2023-01-29T11:27:45.814Z,102347.13
2023-01-29T11:30:52.106Z,102347.38
2023-01-29T11:34:06.611Z,102353.91
2023-01-29T11:37:18.898Z,102342.72
2023-01-29T11:40:40.738Z,102332.13
2023-01-29T11:43:45.886Z,102321.84
2023-01-29T11:46:51.424Z,102326.91
2023-01-29T11:49:57.932Z,102320.13
2023-01-29T11:53:03.102Z,102314.13
2023-01-29T11:56:21.916Z,102302.91
2023-01-29T11:59:44.338Z,102292.47
2023-01-29T12:02:54.247Z,102290.81
2023-01-29T12:06:02.317Z,102286.38
2023-01-29T12:09:17.065Z,102280.44
2023-01-29T12:12:37.104Z,102271.63
2023-01-29T12:15:44.668Z,102267.41
2023-01-29T12:18:56.638Z,102266.66
2023-01-29T12:22:07.309Z,102250.81
2023-01-29T12:25:27.596Z,102246.69
2023-01-29T12:28:50.123Z,102252.88
2023-01-29T12:32:08.734Z,102245.94
2023-01-29T12:35:23.771Z,102231.16
2023-01-29T12:38:27.588Z,102234.53
2023-01-29T12:41:41.536Z,102214.69
2023-01-29T12:44:50.050Z,102209.66
2023-01-29T12:48:00.711Z,102212.22
2023-01-29T12:51:12.923Z,102212.09
2023-01-29T12:54:24.815Z,102204.41
2023-01-29T12:57:44.017Z,102206.88
2023-01-29T13:00:52.583Z,102198.22
2023-01-29T13:04:06.426Z,102188.66
2023-01-29T13:07:19.038Z,102190.41
2023-01-29T13:10:29.925Z,102180.84
2023-01-29T13:13:44.324Z,102173.16
2023-01-29T13:16:54.601Z,102158.53
2023-01-29T13:20:12.391Z,102156.75
2023-01-29T13:23:23.423Z,102154.91
2023-01-29T13:26:28.149Z,102161.94
2023-01-29T13:29:34.035Z,102148.94
2023-01-29T13:32:38.827Z,102141.34
2023-01-29T13:35:47.815Z,102143.75
2023-01-29T13:39:02.294Z,102145.41
2023-01-29T13:42:20.441Z,102141.91
2023-01-29T13:45:29.694Z,102134.97
2023-01-29T13:48:39.909Z,102132.31
2023-01-29T13:51:45.163Z,102127.94
2023-01-29T13:54:58.536Z,102123.53
2023-01-29T13:58:03.362Z,102130.34
2023-01-29T14:01:07.098Z,102122.47
2023-01-29T14:04:32.803Z,102118.16
2023-01-29T14:07:53.198Z,102118.09
2023-01-29T14:11:36.804Z,102113.88
2023-01-29T14:15:05.411Z,102108.59
2023-01-29T14:18:28.823Z,102100.78
2023-01-29T14:21:36.190Z,102092.09
2023-01-29T14:24:45.264Z,102084.44
2023-01-29T14:27:50.307Z,102079.13
2023-01-29T14:30:55.341Z,102086.03
2023-01-29T14:34:04.576Z,102091.16
2023-01-29T14:37:30.268Z,102092.88
2023-01-29T14:40:37.351Z,102096.28
2023-01-29T14:43:41.672Z,102091.84
2023-01-29T14:46:46.780Z,102083.19
2023-01-29T14:49:55.518Z,102079.75
2023-01-29T14:53:08.854Z,102078.91
2023-01-29T14:56:29.917Z,102066.84
2023-01-29T14:59:40.166Z,102064.25
2023-01-29T15:02:46.612Z,102058.25
2023-01-29T15:05:54.736Z,102056.34
2023-01-29T15:09:13.374Z,102055.38
2023-01-29T15:12:29.297Z,102047.56
2023-01-29T15:15:40.250Z,102048.19
2023-01-29T15:18:45.411Z,102041.31
2023-01-29T15:22:09.538Z,102039.50
2023-01-29T15:25:19.545Z,102026.41
2023-01-29T15:28:25.807Z,102030.66
2023-01-29T15:31:30.518Z,102023.66
2023-01-29T15:34:36.049Z,102020.28
2023-01-29T15:37:41.801Z,102021.03
2023-01-29T15:40:54.112Z,102019.34
2023-01-29T15:44:02.154Z,102017.50
2023-01-29T15:47:07.710Z,102018.19
2023-01-29T15:50:15.366Z,102011.25
2023-01-29T15:53:25.258Z,102005.03
2023-01-29T15:56:35.346Z,102004.19
2023-01-29T15:59:51.691Z,102005.03
2023-01-29T16:02:55.989Z,102000.63
2023-01-29T16:06:01.102Z,101990.16
2023-01-29T16:09:08.653Z,101992.66
2023-01-29T16:12:14.961Z,101990.06
2023-01-29T16:15:36.847Z,101990.16
2023-01-29T16:18:57.893Z,101987.28
2023-01-29T16:22:06.928Z,101984.72
2023-01-29T16:25:17.626Z,101982.13
2023-01-29T16:28:21.760Z,101981.34
2023-01-29T16:31:33.032Z,101973.47
2023-01-29T16:34:39.776Z,101987.34
2023-01-29T16:37:48.500Z,101975.28
2023-01-29T16:41:14.842Z,101974.41
2023-01-29T16:44:37.539Z,101980.41
2023-01-29T16:47:42.856Z,101976.16
2023-01-29T16:50:55.086Z,101977.97
2023-01-29T16:54:02.717Z,101980.56
2023-01-29T16:57:06.352Z,101967.50
2023-01-29T17:00:22.157Z,101974.50
2023-01-29T17:03:29.539Z,101972.69
2023-01-29T17:06:34.642Z,101972.56
2023-01-29T17:09:40.194Z,101961.25
2023-01-29T17:12:54.220Z,101954.38
2023-01-29T17:16:04.181Z,101943.97
2023-01-29T17:19:21.689Z,101943.94
2023-01-29T17:22:25.953Z,101943.00
2023-01-29T17:25:31.158Z,101934.34
2023-01-29T17:28:35.725Z,101924.75
2023-01-29T17:31:39.591Z,101908.41
2023-01-29T17:34:45.197Z,101907.50
2023-01-29T17:37:49.197Z,101898.91
2023-01-29T17:40:58.793Z,101890.28
2023-01-29T17:44:02.556Z,101886.81
2023-01-29T17:47:08.027Z,101878.19
2023-01-29T17:50:23.484Z,101877.34
2023-01-29T17:53:39.800Z,101865.25
2023-01-29T17:56:48.666Z,101865.28
2023-01-29T17:59:53.303Z,101846.28
2023-01-29T18:03:01.012Z,101847.13
2023-01-29T18:06:10.167Z,101843.69
2023-01-29T18:09:15.900Z,101839.47
2023-01-29T18:12:19.709Z,101820.44
2023-01-29T18:15:23.849Z,101822.16
2023-01-29T18:18:29.417Z,101812.75
2023-01-29T18:21:34.610Z,101817.06
2023-01-29T18:24:38.356Z,101792.94
2023-01-29T18:27:42.110Z,101790.34
2023-01-29T18:30:47.839Z,101787.84
2023-01-29T18:33:51.672Z,101775.72
2023-01-29T18:36:57.303Z,101775.81
2023-01-29T18:40:01.842Z,101767.19
2023-01-29T18:43:06.023Z,101772.34
2023-01-29T18:46:11.067Z,101758.59
2023-01-29T18:49:15.410Z,101761.25
2023-01-29T18:52:20.702Z,101741.38
2023-01-29T18:55:26.636Z,101731.06
2023-01-29T18:58:36.804Z,101730.22
2023-01-29T19:01:40.710Z,101730.28
2023-01-29T19:04:44.902Z,101719.03
2023-01-29T19:07:50.054Z,101718.19
2023-01-29T19:10:53.980Z,101713.84
2023-01-29T19:13:58.436Z,101692.25
2023-01-29T19:17:03.090Z,101699.13
2023-01-29T19:20:09.649Z,101697.44
2023-01-29T19:23:14.938Z,101695.69
2023-01-29T19:26:19.260Z,101681.09
2023-01-29T19:29:23.444Z,101675.91
2023-01-29T19:32:28.872Z,101674.16
2023-01-29T19:35:33.510Z,101681.97
2023-01-29T19:38:39.883Z,101670.81
2023-01-29T19:41:44.006Z,101661.31
2023-01-29T19:44:47.838Z,101648.44
2023-01-29T19:47:51.481Z,101646.75
2023-01-29T19:50:57.316Z,101653.63
2023-01-29T19:54:02.544Z,101645.06
2023-01-29T19:57:07.538Z,101646.78
2023-01-29T20:00:14.743Z,101633.94
2023-01-29T20:03:18.302Z,101633.97
2023-01-29T20:06:26.832Z,101626.22
2023-01-29T20:09:31.957Z,101633.13
2023-01-29T20:12:35.633Z,101623.66
2023-01-29T20:15:46.908Z,101647.84
2023-01-29T20:18:50.826Z,101627.16
2023-01-29T20:21:54.654Z,101615.06
2023-01-29T20:24:59.781Z,101607.31
2023-01-29T20:28:03.489Z,101603.06
2023-01-29T20:31:09.329Z,101605.66
2023-01-29T20:34:12.975Z,101606.50
2023-01-29T20:37:16.673Z,101594.41
2023-01-29T20:40:22.106Z,101580.66
2023-01-29T20:43:26.039Z,101584.13
2023-01-29T20:46:30.048Z,101570.34
2023-01-29T20:49:33.733Z,101577.25
2023-01-29T20:52:38.067Z,101570.38
2023-01-29T20:55:43.516Z,101582.47
2023-01-29T20:58:47.724Z,101561.78
2023-01-29T21:01:51.434Z,101560.88
2023-01-29T21:04:55.090Z,101553.09
2023-01-29T21:07:58.761Z,101560.06
2023-01-29T21:11:04.175Z,101552.28
2023-01-29T21:14:08.012Z,101556.63
2023-01-29T21:17:11.678Z,101541.03
2023-01-29T21:20:16.062Z,101532.38
2023-01-29T21:23:20.368Z,101528.13
2023-01-29T21:26:26.041Z,101536.75
2023-01-29T21:29:29.686Z,101534.19
2023-01-29T21:32:33.817Z,101529.91
2023-01-29T21:35:38.480Z,101533.31
2023-01-29T21:38:42.394Z,101528.94
2023-01-29T21:42:06.833Z,101522.03
2023-01-29T21:45:12.055Z,101503.03
2023-01-29T21:48:20.011Z,101503.88
2023-01-29T21:51:23.895Z,101507.41
2023-01-29T21:54:31.129Z,101502.19
2023-01-29T21:57:36.334Z,101511.63
2023-01-29T22:00:43.239Z,101508.22
2023-01-29T22:03:47.620Z,101502.19
2023-01-29T22:06:51.389Z,101491.84
2023-01-29T22:09:55.089Z,101496.13
2023-01-29T22:13:02.050Z,101484.88
2023-01-29T22:16:07.042Z,101459.81
2023-01-29T22:19:10.704Z,101445.09
2023-01-29T22:22:15.717Z,101445.09
2023-01-29T22:25:20.166Z,101442.50
2023-01-29T22:28:25.189Z,101433.00
2023-01-29T22:31:28.794Z,101448.53
2023-01-29T22:34:32.632Z,101439.00
2023-01-29T22:37:36.238Z,101429.53
2023-01-29T22:40:40.103Z,101433.00
2023-01-29T22:43:45.119Z,101416.59
2023-01-29T22:46:49.010Z,101398.50
2023-01-29T22:49:52.637Z,101397.66
2023-01-29T22:52:56.440Z,101406.34
2023-01-29T22:56:00.429Z,101382.16
2023-01-29T22:59:05.529Z,101370.09
2023-01-29T23:02:10.545Z,101355.44
2023-01-29T23:05:14.218Z,101350.28
2023-01-29T23:08:17.852Z,101352.00
2023-01-29T23:11:23.845Z,101327.00
2023-01-29T23:14:28.935Z,101295.09
2023-01-29T23:17:32.572Z,101288.16
2023-01-29T23:20:36.361Z,101281.25
2023-01-29T23:23:43.113Z,101254.50
2023-01-29T23:27:05.636Z,101257.97
2023-01-29T23:30:12.514Z,101258.81
2023-01-29T23:33:16.233Z,101266.59
2023-01-29T23:36:19.989Z,101264.00
2023-01-29T23:39:23.838Z,101274.41
2023-01-29T23:42:27.479Z,101278.72
2023-01-29T23:45:36.047Z,101284.78
2023-01-29T23:48:39.690Z,101278.75
2023-01-29T23:51:43.404Z,101282.22
2023-01-29T23:54:47.030Z,101290.00
2023-01-29T23:57:50.629Z,101271.88
